createdAt,value
2022-07-25T00:00:00.434Z,13.52
2022-07-25T00:02:27.663Z,13.50
2022-07-25T00:04:56.027Z,14.07
2022-07-25T00:07:25.059Z,15.15
2022-07-25T00:09:52.497Z,13.10
2022-07-25T00:12:19.757Z,14.05
2022-07-25T00:14:46.827Z,14.20
2022-07-25T00:17:13.483Z,14.05
2022-07-25T00:19:40.288Z,14.60
2022-07-25T00:22:08.505Z,16.27
2022-07-25T00:24:35.354Z,14.27
2022-07-25T00:27:02.860Z,15.15
2022-07-25T00:29:29.880Z,15.48
2022-07-25T00:31:56.576Z,14.38
2022-07-25T00:34:23.230Z,19.65
2022-07-25T00:36:49.896Z,15.63
2022-07-25T00:39:17.943Z,15.15
2022-07-25T00:41:44.769Z,16.45
2022-07-25T00:44:23.172Z,13.85
2022-07-25T00:46:51.845Z,16.17
2022-07-25T00:49:18.899Z,15.80
2022-07-25T00:51:46.074Z,14.93
2022-07-25T00:54:12.911Z,13.70
2022-07-25T00:56:42.443Z,15.35
2022-07-25T00:59:09.539Z,14.57
2022-07-25T01:01:36.714Z,14.25
2022-07-25T01:04:05.097Z,14.57
2022-07-25T01:06:33.370Z,15.35
2022-07-25T01:09:01.047Z,14.90
2022-07-25T01:11:28.035Z,13.55
2022-07-25T01:13:56.038Z,14.88
2022-07-25T01:16:22.775Z,13.35
2022-07-25T01:18:49.474Z,13.18
2022-07-25T01:21:17.486Z,14.82
2022-07-25T01:23:44.183Z,15.55
2022-07-25T01:26:10.955Z,15.10
2022-07-25T01:28:37.930Z,12.55
2022-07-25T01:31:04.836Z,15.65
2022-07-25T01:33:31.632Z,15.40
2022-07-25T01:35:58.293Z,12.80
2022-07-25T01:38:26.349Z,14.43
2022-07-25T01:40:53.374Z,13.73
2022-07-25T01:43:20.338Z,14.65
2022-07-25T01:45:47.041Z,14.68
2022-07-25T01:48:13.846Z,14.02
2022-07-25T01:50:40.525Z,15.60
2022-07-25T01:53:07.306Z,17.15
2022-07-25T01:55:35.317Z,14.38
2022-07-25T01:58:03.382Z,14.95
2022-07-25T02:00:30.059Z,15.45
2022-07-25T02:03:15.509Z,15.25
2022-07-25T02:05:42.182Z,18.85
2022-07-25T02:08:08.910Z,17.15
2022-07-25T02:10:39.257Z,15.05
2022-07-25T02:13:06.002Z,14.35
2022-07-25T02:15:32.864Z,15.68
2022-07-25T02:17:59.586Z,15.60
2022-07-25T02:20:26.252Z,15.63
2022-07-25T02:22:52.924Z,14.82
2022-07-25T02:25:19.692Z,16.23
2022-07-25T02:27:47.683Z,17.58
2022-07-25T02:30:14.563Z,17.58
2022-07-25T02:32:41.237Z,14.70
2022-07-25T02:35:13.038Z,13.93
2022-07-25T02:37:40.598Z,14.30
2022-07-25T02:40:08.402Z,14.55
2022-07-25T02:42:35.058Z,15.75
2022-07-25T02:45:03.572Z,13.35
2022-07-25T02:47:30.313Z,16.08
2022-07-25T02:49:57.007Z,14.50
2022-07-25T02:52:23.855Z,18.85
2022-07-25T02:54:50.893Z,13.95
2022-07-25T02:57:17.825Z,15.05
2022-07-25T02:59:44.539Z,13.93
2022-07-25T03:02:12.569Z,14.43
2022-07-25T03:04:39.240Z,13.60
2022-07-25T03:07:05.894Z,13.13
2022-07-25T03:09:32.588Z,14.43
2022-07-25T03:11:59.254Z,13.63
2022-07-25T03:14:26.077Z,13.75
2022-07-25T03:16:53.524Z,15.70
2022-07-25T03:19:21.769Z,13.88
2022-07-25T03:21:48.413Z,16.80
2022-07-25T03:24:15.101Z,13.93
2022-07-25T03:26:41.818Z,15.00
2022-07-25T03:29:08.469Z,14.20
2022-07-25T03:31:35.165Z,14.98
2022-07-25T03:34:01.911Z,14.93
2022-07-25T03:36:30.000Z,15.93
2022-07-25T03:38:57.698Z,16.17
2022-07-25T03:41:27.809Z,18.73
2022-07-25T03:43:54.727Z,15.00
2022-07-25T03:46:21.516Z,15.55
2022-07-25T03:48:48.323Z,15.68
2022-07-25T03:51:15.020Z,15.73
2022-07-25T03:54:06.252Z,17.38
2022-07-25T03:56:38.384Z,16.85
2022-07-25T03:59:13.010Z,13.63
2022-07-25T04:01:40.142Z,15.35
2022-07-25T04:04:07.718Z,19.02
2022-07-25T04:06:34.783Z,18.23
2022-07-25T04:09:02.904Z,14.45
2022-07-25T04:11:30.913Z,17.13
2022-07-25T04:13:58.399Z,13.85
2022-07-25T04:16:25.361Z,15.55
2022-07-25T04:18:55.363Z,16.73
2022-07-25T04:21:23.552Z,15.13
2022-07-25T04:23:50.363Z,15.77
2022-07-25T04:26:19.358Z,15.82
2022-07-25T04:31:12.611Z,12.57
2022-07-25T04:33:40.104Z,13.57
2022-07-25T04:36:07.281Z,14.35
2022-07-25T04:38:34.837Z,14.20
2022-07-25T04:41:01.649Z,13.20
2022-07-25T04:43:29.693Z,15.15
2022-07-25T04:45:56.443Z,16.48
2022-07-25T04:48:23.360Z,18.55
2022-07-25T04:50:50.275Z,20.25
2022-07-25T04:53:16.954Z,16.40
2022-07-25T04:55:43.744Z,17.67
2022-07-25T04:58:10.435Z,18.25
2022-07-25T05:00:38.732Z,17.70
2022-07-25T05:03:05.486Z,19.48
2022-07-25T05:05:32.654Z,18.13
2022-07-25T05:07:59.943Z,17.02
2022-07-25T05:10:28.217Z,14.85
2022-07-25T05:12:54.982Z,17.75
2022-07-25T05:15:21.895Z,18.10
2022-07-25T05:17:49.871Z,13.85
2022-07-25T05:20:16.650Z,15.43
2022-07-25T05:22:43.315Z,13.00
2022-07-25T05:25:11.820Z,14.63
2022-07-25T05:27:38.874Z,16.08
2022-07-25T05:30:07.925Z,14.13
2022-07-25T05:32:35.072Z,18.88
2022-07-25T05:35:03.486Z,14.43
2022-07-25T05:37:30.181Z,15.60
2022-07-25T05:39:56.926Z,14.73
2022-07-25T05:42:23.709Z,13.95
2022-07-25T05:44:50.356Z,12.57
2022-07-25T05:47:17.275Z,18.77
2022-07-25T05:49:44.727Z,15.18
2022-07-25T05:52:13.437Z,17.42
2022-07-25T05:54:40.255Z,14.90
2022-07-25T05:57:07.015Z,15.57
2022-07-25T05:59:33.724Z,14.32
2022-07-25T06:02:01.248Z,15.52
2022-07-25T06:04:28.124Z,13.50
2022-07-25T06:06:54.770Z,14.65
2022-07-25T06:09:23.932Z,13.48
2022-07-25T06:12:00.142Z,13.45
2022-07-25T06:14:28.531Z,12.57
2022-07-25T06:16:55.402Z,15.23
2022-07-25T06:19:22.171Z,16.83
2022-07-25T06:21:48.839Z,14.02
2022-07-25T06:24:15.543Z,15.38
2022-07-25T06:26:43.557Z,14.55
2022-07-25T06:29:10.253Z,17.08
2022-07-25T06:31:36.953Z,14.57
2022-07-25T06:34:04.205Z,14.20
2022-07-25T06:36:32.274Z,14.73
2022-07-25T06:38:59.819Z,16.55
2022-07-25T06:41:26.528Z,16.42
2022-07-25T06:43:54.612Z,16.85
2022-07-25T06:46:21.345Z,15.38
2022-07-25T06:48:48.143Z,15.93
2022-07-25T06:51:15.001Z,14.98
2022-07-25T06:53:41.718Z,15.27
2022-07-25T06:56:09.875Z,18.52
2022-07-25T06:58:37.188Z,15.45
2022-07-25T07:01:05.403Z,13.88
2022-07-25T07:03:34.315Z,14.13
2022-07-25T07:06:01.824Z,14.88
2022-07-25T07:08:28.503Z,16.60
2022-07-25T07:10:55.185Z,15.88
2022-07-25T07:13:24.610Z,16.60
2022-07-25T07:15:51.921Z,14.18
2022-07-25T07:18:20.528Z,14.02
2022-07-25T07:20:47.555Z,14.65
2022-07-25T07:23:16.886Z,14.48
2022-07-25T07:25:46.079Z,17.77
2022-07-25T07:28:12.894Z,15.38
2022-07-25T07:31:13.438Z,12.88
2022-07-25T07:33:27.704Z,13.45
2022-07-25T07:35:56.846Z,12.73
2022-07-25T07:38:23.576Z,17.40
2022-07-25T07:40:50.235Z,17.45
2022-07-25T07:43:16.910Z,13.75
2022-07-25T07:45:44.165Z,13.10
2022-07-25T07:48:10.995Z,14.05
2022-07-25T07:50:39.074Z,12.80
2022-07-25T07:53:06.741Z,16.27
2022-07-25T07:55:46.586Z,13.68
2022-07-25T07:58:15.932Z,14.75
2022-07-25T08:00:43.751Z,14.38
2022-07-25T08:03:10.713Z,14.00
2022-07-25T08:05:41.618Z,14.30
2022-07-25T08:08:11.039Z,13.48
2022-07-25T08:10:39.097Z,12.55
2022-07-25T08:13:14.272Z,12.73
2022-07-25T08:15:42.045Z,13.15
2022-07-25T08:18:17.772Z,14.43
2022-07-25T08:20:46.711Z,13.88
2022-07-25T08:23:13.748Z,15.30
2022-07-25T08:25:40.608Z,17.33
2022-07-25T08:28:07.757Z,14.48
2022-07-25T08:30:35.294Z,15.55
2022-07-25T08:33:04.144Z,15.20
2022-07-25T08:35:32.089Z,15.48
2022-07-25T08:38:02.416Z,14.07
2022-07-25T08:40:31.379Z,15.38
2022-07-25T08:42:58.583Z,15.77
2022-07-25T08:45:26.656Z,12.88
2022-07-25T08:47:54.587Z,12.43
2022-07-25T08:50:26.616Z,10.90
2022-07-25T08:53:10.091Z,11.27
2022-07-25T08:55:43.544Z,10.35
2022-07-25T08:58:11.176Z,10.30
2022-07-25T09:00:38.026Z,10.13
2022-07-25T09:03:08.627Z,10.80
2022-07-25T09:05:37.175Z,11.65
2022-07-25T09:08:08.813Z,10.25
2022-07-25T09:10:36.940Z,9.05
2022-07-25T09:13:07.862Z,10.85
2022-07-25T09:15:36.745Z,11.75
2022-07-25T09:18:07.606Z,10.43
2022-07-25T09:20:40.543Z,8.90
2022-07-25T09:23:07.662Z,12.40
2022-07-25T09:25:34.593Z,9.80
2022-07-25T09:28:12.497Z,9.18
2022-07-25T09:30:40.048Z,11.35
2022-07-25T09:33:07.190Z,10.23
2022-07-25T09:35:41.382Z,7.72
2022-07-25T09:38:10.057Z,9.88
2022-07-25T09:40:36.781Z,9.70
2022-07-25T09:43:03.986Z,13.82
2022-07-25T09:45:32.664Z,9.52
2022-07-25T09:48:00.850Z,10.23
2022-07-25T09:50:30.100Z,10.02
2022-07-25T09:52:59.806Z,8.90
2022-07-25T09:55:26.742Z,10.80
2022-07-25T09:57:53.511Z,10.45
2022-07-25T10:00:23.317Z,10.18
2022-07-25T10:03:01.868Z,8.27
2022-07-25T10:05:46.675Z,10.43
2022-07-25T10:08:13.762Z,8.65
2022-07-25T10:10:42.043Z,11.35
2022-07-25T10:13:11.422Z,8.45
2022-07-25T10:15:48.119Z,10.55
2022-07-25T10:18:18.494Z,8.85
2022-07-25T10:20:46.494Z,9.00
2022-07-25T10:23:21.500Z,8.65
2022-07-25T10:25:59.935Z,10.45
2022-07-25T10:28:37.215Z,10.60
2022-07-25T10:31:15.446Z,10.80
2022-07-25T10:33:43.947Z,8.65
2022-07-25T10:36:11.515Z,8.88
2022-07-25T10:38:40.029Z,10.05
2022-07-25T10:41:09.003Z,9.80
2022-07-25T10:43:37.742Z,9.73
2022-07-25T10:46:13.521Z,8.18
2022-07-25T10:48:41.490Z,10.40
2022-07-25T10:51:11.470Z,8.57
2022-07-25T10:53:46.461Z,9.15
2022-07-25T10:56:15.423Z,9.00
2022-07-25T10:58:47.536Z,8.20
2022-07-25T11:01:19.172Z,8.25
2022-07-25T11:03:45.979Z,9.77
2022-07-25T11:06:15.729Z,7.68
2022-07-25T11:08:43.966Z,13.27
2022-07-25T11:11:11.501Z,11.90
2022-07-25T11:13:39.530Z,10.05
2022-07-25T11:16:06.654Z,8.20
2022-07-25T11:18:35.138Z,8.40
2022-07-25T11:21:06.425Z,7.78
2022-07-25T11:23:35.955Z,8.05
2022-07-25T11:26:07.972Z,10.07
2022-07-25T11:28:39.676Z,9.70
2022-07-25T11:31:06.861Z,9.73
2022-07-25T11:33:38.446Z,8.88
2022-07-25T11:36:07.081Z,8.93
2022-07-25T11:38:37.750Z,11.35
2022-07-25T11:41:05.364Z,8.93
2022-07-25T11:43:32.132Z,9.75
2022-07-25T11:46:01.292Z,9.23
2022-07-25T11:48:34.296Z,8.77
2022-07-25T11:51:18.121Z,10.50
2022-07-25T11:53:47.945Z,10.30
2022-07-25T11:56:40.727Z,8.82
2022-07-25T11:59:03.811Z,9.80
2022-07-25T12:01:34.511Z,9.60
2022-07-25T12:04:09.099Z,9.43
2022-07-25T12:06:35.879Z,11.38
2022-07-25T12:09:18.031Z,8.70
2022-07-25T12:11:46.921Z,11.18
2022-07-25T12:14:13.828Z,9.80
2022-07-25T12:16:40.623Z,11.75
2022-07-25T12:19:10.365Z,13.43
2022-07-25T12:21:37.730Z,9.98
2022-07-25T12:24:05.447Z,9.63
2022-07-25T12:26:33.482Z,9.50
2022-07-25T12:29:00.126Z,9.73
2022-07-25T12:31:28.669Z,9.35
2022-07-25T12:33:55.615Z,11.35
2022-07-25T12:36:22.512Z,10.57
2022-07-25T12:38:49.191Z,8.80
2022-07-25T12:41:18.195Z,8.68
2022-07-25T12:43:46.270Z,10.35
2022-07-25T12:46:13.102Z,9.57
2022-07-25T12:48:40.043Z,8.77
2022-07-25T12:51:06.854Z,9.50
2022-07-25T12:53:33.520Z,9.43
2022-07-25T12:56:00.507Z,9.15
2022-07-25T12:58:27.392Z,9.90
2022-07-25T13:01:00.932Z,9.02
2022-07-25T13:03:30.113Z,11.05
2022-07-25T13:05:57.007Z,10.82
2022-07-25T13:08:23.810Z,10.98
2022-07-25T13:10:50.470Z,10.55
2022-07-25T13:13:17.137Z,9.48
2022-07-25T13:15:44.003Z,10.75
2022-07-25T13:18:12.116Z,8.25
2022-07-25T13:23:05.730Z,9.98
2022-07-25T13:25:33.918Z,9.63
2022-07-25T13:28:02.819Z,12.13
2022-07-25T13:30:29.751Z,10.07
2022-07-25T13:32:56.606Z,11.27
2022-07-25T13:35:31.642Z,13.88
2022-07-25T13:38:02.049Z,11.27
2022-07-25T13:40:28.719Z,11.98
2022-07-25T13:42:55.535Z,10.52
2022-07-25T13:45:22.236Z,13.32
2022-07-25T13:48:05.980Z,9.85
2022-07-25T13:50:37.004Z,9.82
2022-07-25T13:55:32.251Z,9.52
2022-07-25T13:57:58.922Z,10.68
2022-07-25T14:00:25.579Z,10.25
2022-07-25T14:02:52.249Z,9.82
2022-07-25T14:05:19.241Z,9.32
2022-07-25T14:07:47.303Z,10.77
2022-07-25T14:12:40.746Z,11.13
2022-07-25T14:15:09.421Z,10.75
2022-07-25T14:17:36.751Z,10.82
2022-07-25T14:20:04.347Z,9.65
2022-07-25T14:22:31.019Z,12.05
2022-07-25T14:24:59.107Z,12.75
2022-07-25T14:29:53.833Z,10.05
2022-07-25T14:32:20.906Z,10.30
2022-07-25T14:34:47.616Z,10.77
2022-07-25T14:37:14.367Z,11.43
2022-07-25T14:39:41.030Z,11.15
2022-07-25T14:42:11.208Z,10.88
2022-07-25T14:44:38.062Z,9.85
2022-07-25T14:47:09.009Z,12.20
2022-07-25T14:49:40.130Z,12.77
2022-07-25T14:52:06.879Z,10.38
2022-07-25T14:54:33.566Z,10.93
2022-07-25T14:57:00.369Z,11.50
2022-07-25T14:59:28.742Z,9.95
2022-07-25T15:01:55.511Z,12.55
2022-07-25T15:04:25.005Z,11.40
2022-07-25T15:06:52.068Z,11.80
2022-07-25T15:09:19.267Z,11.48
2022-07-25T15:11:45.994Z,11.10
2022-07-25T15:14:12.869Z,11.38
2022-07-25T15:16:41.067Z,10.00
2022-07-25T15:19:16.871Z,11.32
2022-07-25T15:21:43.897Z,10.48
2022-07-25T15:24:10.569Z,11.23
2022-07-25T15:26:37.610Z,11.23
2022-07-25T15:29:07.113Z,14.52
2022-07-25T15:31:34.226Z,14.00
2022-07-25T15:34:03.275Z,12.07
2022-07-25T15:36:30.163Z,12.23
2022-07-25T15:38:57.003Z,9.38
2022-07-25T15:41:23.677Z,9.25
2022-07-25T15:43:50.516Z,10.07
2022-07-25T15:46:17.289Z,10.30
2022-07-25T15:48:44.739Z,9.30
2022-07-25T15:51:16.492Z,9.10
2022-07-25T15:53:43.288Z,11.20
2022-07-25T15:56:10.800Z,12.15
2022-07-25T15:58:37.569Z,10.52
2022-07-25T16:01:04.481Z,9.88
2022-07-25T16:03:31.281Z,10.57
2022-07-25T16:05:58.860Z,10.80
2022-07-25T16:08:26.995Z,10.13
2022-07-25T16:13:20.240Z,9.95
2022-07-25T16:15:47.366Z,11.55
2022-07-25T16:18:14.072Z,9.90
2022-07-25T16:20:40.825Z,9.73
2022-07-25T16:23:07.602Z,10.40
2022-07-25T16:25:35.707Z,8.48
2022-07-25T16:28:02.604Z,9.32
2022-07-25T16:30:29.351Z,8.50
2022-07-25T16:32:56.036Z,11.65
2022-07-25T16:35:23.118Z,12.25
2022-07-25T16:37:49.925Z,10.00
2022-07-25T16:40:16.729Z,9.57
2022-07-25T16:42:45.441Z,10.65
2022-07-25T16:45:12.157Z,9.98
2022-07-25T16:47:40.890Z,11.25
2022-07-25T16:50:08.187Z,10.10
2022-07-25T16:52:34.985Z,9.75
2022-07-25T16:55:01.750Z,10.68
2022-07-25T16:57:28.610Z,13.40
2022-07-25T16:59:56.638Z,12.38
2022-07-25T17:02:28.988Z,11.55
2022-07-25T17:04:56.697Z,9.90
2022-07-25T17:07:23.421Z,10.77
2022-07-25T17:09:50.381Z,10.10
2022-07-25T17:12:17.505Z,10.90
2022-07-25T17:14:44.496Z,11.15
2022-07-25T17:17:12.618Z,9.93
2022-07-25T17:19:42.053Z,9.43
2022-07-25T17:22:09.859Z,10.07
2022-07-25T17:24:37.314Z,10.35
2022-07-25T17:27:04.521Z,11.25
2022-07-25T17:29:31.458Z,10.10
2022-07-25T17:31:58.178Z,9.38
2022-07-25T17:34:26.893Z,11.70
2022-07-25T17:36:54.374Z,10.98
2022-07-25T17:39:21.256Z,13.10
2022-07-25T17:41:47.949Z,10.88
2022-07-25T17:44:14.881Z,11.50
2022-07-25T17:46:42.036Z,9.75
2022-07-25T17:49:09.766Z,10.52
2022-07-25T17:51:37.917Z,11.55
2022-07-25T17:54:04.999Z,9.30
2022-07-25T17:56:32.790Z,12.55
2022-07-25T17:58:59.591Z,10.82
2022-07-25T18:01:26.302Z,12.38
2022-07-25T18:03:53.136Z,9.63
2022-07-25T18:06:19.978Z,11.07
2022-07-25T18:08:48.007Z,10.10
2022-07-25T18:11:14.681Z,11.68
2022-07-25T18:13:41.348Z,9.60
2022-07-25T18:16:09.039Z,12.57
2022-07-25T18:18:35.814Z,10.85
2022-07-25T18:21:02.484Z,9.32
2022-07-25T18:23:30.570Z,12.07
2022-07-25T18:25:58.710Z,10.65
2022-07-25T18:28:25.539Z,11.48
2022-07-25T18:30:52.429Z,12.02
2022-07-25T18:33:20.198Z,10.20
2022-07-25T18:35:46.969Z,11.40
2022-07-25T18:38:13.647Z,11.18
2022-07-25T18:40:40.335Z,11.77
2022-07-25T18:43:09.001Z,13.75
2022-07-25T18:45:37.425Z,13.57
2022-07-25T18:48:04.849Z,10.88
2022-07-25T18:50:31.692Z,10.77
2022-07-25T18:52:59.151Z,9.75
2022-07-25T18:55:25.869Z,11.65
2022-07-25T18:57:52.665Z,10.50
2022-07-25T19:00:20.973Z,12.52
2022-07-25T19:02:47.744Z,18.52
2022-07-25T19:05:14.780Z,11.65
2022-07-25T19:07:41.743Z,14.05
2022-07-25T19:10:09.939Z,12.57
2022-07-25T19:12:37.052Z,15.15
2022-07-25T19:15:04.454Z,12.50
2022-07-25T19:17:33.636Z,11.15
2022-07-25T19:20:00.972Z,10.30
2022-07-25T19:22:27.777Z,11.68
2022-07-25T19:24:54.471Z,14.23
2022-07-25T19:27:23.779Z,11.90
2022-07-25T19:29:59.095Z,11.73
2022-07-25T19:32:26.211Z,12.57
2022-07-25T19:34:54.237Z,11.65
2022-07-25T19:37:20.926Z,11.55
2022-07-25T19:39:49.059Z,11.63
2022-07-25T19:42:15.917Z,15.40
2022-07-25T19:44:42.818Z,12.70
2022-07-25T19:47:11.915Z,12.18
2022-07-25T19:49:40.013Z,15.50
2022-07-25T19:52:08.930Z,17.70
2022-07-25T19:54:35.976Z,10.73
2022-07-25T19:57:03.233Z,11.30
2022-07-25T19:59:29.980Z,14.38
2022-07-25T20:01:56.885Z,12.30
2022-07-25T20:04:23.791Z,12.27
2022-07-25T20:06:50.805Z,10.30
2022-07-25T20:09:19.028Z,12.05
2022-07-25T20:11:45.861Z,19.77
2022-07-25T20:14:12.667Z,12.38
2022-07-25T20:16:40.022Z,13.63
2022-07-25T20:19:09.294Z,14.90
2022-07-25T20:21:38.344Z,14.07
2022-07-25T20:24:06.155Z,12.40
2022-07-25T20:26:34.949Z,16.33
2022-07-25T20:29:02.488Z,13.48
2022-07-25T20:31:31.486Z,10.50
2022-07-25T20:39:50.057Z,13.52
2022-07-25T20:42:18.359Z,13.95
2022-07-25T20:44:45.371Z,14.10
2022-07-25T20:47:16.882Z,16.38
2022-07-25T20:49:43.662Z,16.95
2022-07-25T20:52:10.355Z,15.40
2022-07-25T20:54:37.194Z,13.32
2022-07-25T20:57:04.279Z,17.75
2022-07-25T20:59:32.653Z,16.02
2022-07-25T21:02:00.364Z,13.82
2022-07-25T21:04:27.319Z,16.38
2022-07-25T21:06:56.627Z,12.85
2022-07-25T21:09:23.535Z,11.02
2022-07-25T21:11:50.363Z,11.73
2022-07-25T21:14:17.349Z,14.52
2022-07-25T21:16:45.532Z,12.20
2022-07-25T21:19:12.321Z,12.07
2022-07-25T21:21:39.042Z,12.88
2022-07-25T21:24:06.574Z,11.93
2022-07-25T21:26:33.779Z,12.45
2022-07-25T21:29:00.478Z,14.00
2022-07-25T21:31:27.316Z,14.45
2022-07-25T21:33:55.519Z,13.45
2022-07-25T21:36:22.247Z,16.00
2022-07-25T21:38:49.121Z,15.27
2022-07-25T21:41:15.833Z,12.32
2022-07-25T21:43:42.776Z,12.10
2022-07-25T21:46:09.525Z,14.40
2022-07-25T21:48:54.982Z,13.07
2022-07-25T21:51:24.428Z,14.73
2022-07-25T21:53:51.601Z,15.32
2022-07-25T21:56:18.711Z,13.43
2022-07-25T21:58:45.456Z,15.05
2022-07-25T22:01:12.586Z,12.45
2022-07-25T22:03:40.512Z,12.90
2022-07-25T22:06:07.691Z,12.48
2022-07-25T22:08:35.901Z,12.13
2022-07-25T22:11:15.758Z,14.68
2022-07-25T22:13:49.720Z,43.03
2022-07-25T22:16:17.067Z,13.30
2022-07-25T22:18:43.789Z,11.75
2022-07-25T22:21:10.956Z,11.77
2022-07-25T22:23:39.201Z,13.43
2022-07-25T22:26:05.896Z,12.85
2022-07-25T22:28:32.704Z,11.98
2022-07-25T22:31:00.313Z,14.63
2022-07-25T22:33:30.857Z,13.00
2022-07-25T22:35:57.635Z,12.30
2022-07-25T22:38:24.314Z,11.77
2022-07-25T22:40:52.412Z,12.27
2022-07-25T22:43:19.077Z,10.30
2022-07-25T22:45:45.976Z,11.95
2022-07-25T22:48:12.695Z,11.48
2022-07-25T22:50:39.359Z,11.30
2022-07-25T22:53:06.649Z,11.82
2022-07-25T22:55:33.361Z,11.13
2022-07-25T22:58:01.350Z,11.82
2022-07-25T23:00:28.132Z,11.07
2022-07-25T23:02:54.836Z,11.93
2022-07-25T23:05:21.620Z,11.23
2022-07-25T23:07:48.247Z,12.65
2022-07-25T23:10:15.259Z,11.63
2022-07-25T23:12:42.103Z,11.75
2022-07-25T23:15:10.336Z,13.57
2022-07-25T23:17:37.050Z,11.43
2022-07-25T23:20:04.717Z,13.02
2022-07-25T23:22:31.422Z,14.57
2022-07-25T23:24:58.705Z,12.18
2022-07-25T23:27:25.791Z,12.77
2022-07-25T23:29:52.950Z,12.40
2022-07-25T23:32:21.023Z,11.77
2022-07-25T23:34:47.953Z,13.20
2022-07-25T23:37:14.597Z,10.95
2022-07-25T23:39:41.309Z,13.02
2022-07-25T23:42:08.398Z,12.98
2022-07-25T23:44:35.175Z,11.35
2022-07-25T23:47:03.553Z,10.50
2022-07-25T23:49:33.140Z,10.25
2022-07-25T23:57:08.518Z,10.32
2022-07-25T23:59:35.765Z,12.98
